createdAt,value
2018-05-18T00:00:22.864Z,98621.72
2018-05-18T00:02:50.998Z,98628.45
2018-05-18T00:05:19.145Z,98625.88
2018-05-18T00:07:47.277Z,98632.74
2018-05-18T00:10:15.448Z,98633.69
2018-05-18T00:12:43.554Z,98637.47
2018-05-18T00:15:11.710Z,98638.53
2018-05-18T00:17:39.843Z,98646.20
2018-05-18T00:20:07.975Z,98652.39
2018-05-18T00:22:36.118Z,98654.66
2018-05-18T00:25:04.255Z,98654.93
2018-05-18T00:27:32.396Z,98661.77
2018-05-18T00:30:00.570Z,98662.72
2018-05-18T00:32:28.699Z,98663.95
2018-05-18T00:34:56.820Z,98662.58
2018-05-18T00:37:24.980Z,98662.19
2018-05-18T00:39:53.161Z,98663.27
2018-05-18T00:42:21.239Z,98665.02
2018-05-18T00:44:49.392Z,98668.20
2018-05-18T00:47:17.527Z,98663.26
2018-05-18T00:49:45.655Z,98660.31
2018-05-18T00:52:13.810Z,98658.83
2018-05-18T00:54:41.947Z,98659.66
2018-05-18T00:57:10.079Z,98665.68
2018-05-18T00:59:38.286Z,98659.66
2018-05-18T01:02:06.411Z,98671.86
2018-05-18T01:04:34.539Z,98671.73
2018-05-18T01:07:02.688Z,98677.91
2018-05-18T01:09:30.825Z,98681.94
2018-05-18T01:11:58.983Z,98687.95
2018-05-18T01:14:27.122Z,98676.56
2018-05-18T01:16:55.250Z,98676.28
2018-05-18T01:19:23.375Z,98673.06
2018-05-18T01:21:51.507Z,98672.78
2018-05-18T01:24:19.660Z,98676.81
2018-05-18T01:26:47.795Z,98670.64
2018-05-18T01:29:16.053Z,98666.47
2018-05-18T01:31:44.189Z,98667.96
2018-05-18T01:34:12.329Z,98666.87
2018-05-18T01:36:40.469Z,98666.47
2018-05-18T01:39:08.635Z,98675.75
2018-05-18T01:41:36.766Z,98675.09
2018-05-18T01:44:04.923Z,98683.39
2018-05-18T01:46:33.067Z,98673.73
2018-05-18T01:49:01.192Z,98675.08
2018-05-18T01:51:29.360Z,98677.61
2018-05-18T01:53:57.499Z,98678.30
2018-05-18T01:56:25.626Z,98675.73
2018-05-18T01:58:53.804Z,98673.98
2018-05-18T02:01:21.946Z,98676.13
2018-05-18T02:03:50.071Z,98675.61
2018-05-18T02:06:18.237Z,98680.17
2018-05-18T02:08:46.375Z,98685.25
2018-05-18T02:11:14.505Z,98688.23
2018-05-18T02:13:42.658Z,98690.11
2018-05-18T02:16:10.798Z,98686.34
2018-05-18T02:18:38.926Z,98682.98
2018-05-18T02:21:07.130Z,98685.02
2018-05-18T02:23:35.292Z,98685.16
2018-05-18T02:26:03.455Z,98691.05
2018-05-18T02:28:31.570Z,98695.08
2018-05-18T02:30:59.713Z,98697.77
2018-05-18T02:33:27.845Z,98696.84
2018-05-18T02:35:55.999Z,98686.91
2018-05-18T02:38:24.134Z,98691.19
2018-05-18T02:40:52.264Z,98688.80
2018-05-18T02:43:20.420Z,98689.45
2018-05-18T02:45:48.558Z,98687.70
2018-05-18T02:48:16.715Z,98685.55
2018-05-18T02:50:44.858Z,98693.62
2018-05-18T02:53:12.998Z,98690.79
2018-05-18T02:55:41.134Z,98694.28
2018-05-18T02:58:09.285Z,98696.28
2018-05-18T03:00:37.410Z,98693.89
2018-05-18T03:03:05.675Z,98697.23
2018-05-18T03:05:33.863Z,98698.98
2018-05-18T03:08:01.983Z,98701.28
2018-05-18T03:10:30.138Z,98696.16
2018-05-18T03:12:58.269Z,98711.33
2018-05-18T03:15:26.401Z,98695.10
2018-05-18T03:17:54.532Z,98709.99
2018-05-18T03:20:22.717Z,98702.34
2018-05-18T03:22:50.859Z,98710.12
2018-05-18T03:25:18.989Z,98709.84
2018-05-18T03:27:47.129Z,98716.17
2018-05-18T03:30:15.278Z,98720.20
2018-05-18T03:32:43.404Z,98715.08
2018-05-18T03:35:11.555Z,98722.59
2018-05-18T03:37:39.687Z,98728.12
2018-05-18T03:40:07.827Z,98727.03
2018-05-18T03:42:35.976Z,98723.94
2018-05-18T03:45:04.099Z,98729.05
2018-05-18T03:47:32.243Z,98735.89
2018-05-18T03:50:00.564Z,98736.95
2018-05-18T03:52:28.684Z,98742.20
2018-05-18T03:54:56.838Z,98732.11
2018-05-18T03:57:24.982Z,98737.52
2018-05-18T03:59:53.099Z,98740.33
2018-05-18T04:02:32.992Z,98745.69
2018-05-18T04:05:12.876Z,98748.38
2018-05-18T04:10:41.276Z,98748.63
2018-05-18T04:13:10.040Z,98747.84
2018-05-18T04:15:38.159Z,98740.86
2018-05-18T04:18:06.298Z,98740.33
2018-05-18T04:20:34.428Z,98741.94
2018-05-18T04:23:02.563Z,98744.06
2018-05-18T04:25:30.994Z,98743.81
2018-05-18T04:27:59.109Z,98749.19
2018-05-18T04:30:27.250Z,98752.11
2018-05-18T04:32:55.395Z,98759.23
2018-05-18T04:35:23.519Z,98756.16
2018-05-18T04:37:51.679Z,98757.50
2018-05-18T04:40:19.811Z,98751.85
2018-05-18T04:42:47.955Z,98752.13
2018-05-18T04:45:16.083Z,98752.13
2018-05-18T04:47:44.209Z,98752.00
2018-05-18T04:50:12.349Z,98753.72
2018-05-18T04:52:40.481Z,98751.99
2018-05-18T04:55:08.628Z,98751.30
2018-05-18T04:57:36.773Z,98749.84
2018-05-18T05:00:04.898Z,98752.52
2018-05-18T05:02:33.051Z,98754.80
2018-05-18T05:05:01.969Z,98747.96
2018-05-18T05:07:30.107Z,98745.80
2018-05-18T05:09:58.243Z,98750.23
2018-05-18T05:12:26.394Z,98750.75
2018-05-18T05:14:54.531Z,98762.98
2018-05-18T05:17:22.691Z,98760.14
2018-05-18T05:19:50.815Z,98759.22
2018-05-18T05:22:18.961Z,98765.53
2018-05-18T05:24:47.107Z,98759.48
2018-05-18T05:27:15.339Z,98762.16
2018-05-18T05:29:43.502Z,98762.02
2018-05-18T05:32:11.651Z,98767.53
2018-05-18T05:34:39.822Z,98762.29
2018-05-18T05:37:07.982Z,98764.02
2018-05-18T05:39:36.100Z,98763.07
2018-05-18T05:42:04.247Z,98750.81
2018-05-18T05:44:32.382Z,98756.84
2018-05-18T05:47:00.516Z,98754.68
2018-05-18T05:49:28.669Z,98750.21
2018-05-18T05:52:00.492Z,98754.80
2018-05-18T05:54:28.658Z,98753.30
2018-05-18T05:56:56.786Z,98755.00
2018-05-18T05:59:24.939Z,98754.97
2018-05-18T06:01:53.103Z,98762.19
2018-05-18T06:04:21.234Z,98761.49
2018-05-18T06:06:49.357Z,98761.17
2018-05-18T06:09:17.503Z,98758.30
2018-05-18T06:11:45.633Z,98760.30
2018-05-18T06:14:13.791Z,98765.39
2018-05-18T06:16:41.922Z,98765.18
2018-05-18T06:19:10.054Z,98767.69
2018-05-18T06:21:38.180Z,98765.05
2018-05-18T06:24:06.330Z,98760.95
2018-05-18T06:26:34.469Z,98763.73
2018-05-18T06:29:02.612Z,98767.45
2018-05-18T06:31:30.768Z,98765.63
2018-05-18T06:33:58.905Z,98757.11
2018-05-18T06:36:27.053Z,98761.68
2018-05-18T06:38:55.203Z,98757.77
2018-05-18T06:41:23.338Z,98766.50
2018-05-18T06:43:51.501Z,98769.91
2018-05-18T06:46:19.811Z,98755.64
2018-05-18T06:48:47.942Z,98763.19
2018-05-18T06:51:16.079Z,98762.35
2018-05-18T06:53:44.217Z,98769.83
2018-05-18T06:56:12.371Z,98760.89
2018-05-18T06:58:40.550Z,98775.33
2018-05-18T07:01:08.652Z,98773.29
2018-05-18T07:03:36.769Z,98774.94
2018-05-18T07:06:04.930Z,98774.94
2018-05-18T07:08:33.056Z,98773.70
2018-05-18T07:11:01.196Z,98778.38
2018-05-18T07:13:29.335Z,98781.11
2018-05-18T07:15:57.463Z,98781.67
2018-05-18T07:18:27.097Z,98784.80
2018-05-18T07:20:55.234Z,98790.03
2018-05-18T07:23:23.362Z,98785.73
2018-05-18T07:25:51.514Z,98791.81
2018-05-18T07:28:19.642Z,98781.81
2018-05-18T07:30:47.809Z,98786.12
2018-05-18T07:33:15.939Z,98788.84
2018-05-18T07:35:44.086Z,98785.69
2018-05-18T07:38:12.233Z,98780.38
2018-05-18T07:40:40.356Z,98791.30
2018-05-18T07:43:08.528Z,98782.61
2018-05-18T07:45:36.646Z,98781.80
2018-05-18T07:48:05.638Z,98782.94
2018-05-18T07:50:33.787Z,98784.62
2018-05-18T07:53:01.921Z,98781.32
2018-05-18T07:55:30.118Z,98787.94
2018-05-18T07:57:58.242Z,98789.50
2018-05-18T08:00:26.399Z,98787.00
2018-05-18T08:02:54.708Z,98791.41
2018-05-18T08:05:22.845Z,98784.81
2018-05-18T08:07:50.970Z,98786.26
2018-05-18T08:10:19.112Z,98791.34
2018-05-18T08:12:47.247Z,98794.37
2018-05-18T08:15:15.379Z,98795.00
2018-05-18T08:17:43.678Z,98800.63
2018-05-18T08:20:11.683Z,98798.11
2018-05-18T08:22:39.814Z,98790.27
2018-05-18T08:25:07.949Z,98791.30
2018-05-18T08:27:36.093Z,98800.39
2018-05-18T08:30:04.224Z,98792.23
2018-05-18T08:32:32.352Z,98795.40
2018-05-18T08:35:00.491Z,98798.36
2018-05-18T08:37:28.631Z,98791.08
2018-05-18T08:39:56.773Z,98801.08
2018-05-18T08:42:24.905Z,98800.91
2018-05-18T08:44:53.051Z,98792.45
2018-05-18T08:47:21.185Z,98792.89
2018-05-18T08:49:49.331Z,98793.47
2018-05-18T08:52:17.475Z,98789.55
2018-05-18T08:54:45.619Z,98801.13
2018-05-18T08:57:13.755Z,98801.57
2018-05-18T08:59:41.891Z,98795.86
2018-05-18T09:02:10.027Z,98805.14
2018-05-18T09:04:38.205Z,98807.77
2018-05-18T09:07:06.414Z,98805.50
2018-05-18T09:09:34.564Z,98796.35
2018-05-18T09:12:02.698Z,98808.43
2018-05-18T09:14:30.832Z,98806.59
2018-05-18T09:16:58.982Z,98803.03
2018-05-18T09:19:27.126Z,98805.02
2018-05-18T09:21:55.269Z,98816.12
2018-05-18T09:24:23.410Z,98809.55
2018-05-18T09:26:51.537Z,98825.97
2018-05-18T09:29:19.689Z,98824.72
2018-05-18T09:31:47.842Z,98822.36
2018-05-18T09:34:15.991Z,98825.41
2018-05-18T09:36:44.136Z,98830.41
2018-05-18T09:39:12.258Z,98815.05
2018-05-18T09:41:40.406Z,98814.66
2018-05-18T09:44:08.535Z,98818.28
2018-05-18T09:46:36.663Z,98824.09
2018-05-18T09:49:04.826Z,98821.41
2018-05-18T09:51:32.958Z,98817.77
2018-05-18T09:54:01.107Z,98819.98
2018-05-18T09:56:29.254Z,98821.88
2018-05-18T09:58:57.518Z,98829.47
2018-05-18T10:01:25.658Z,98828.59
2018-05-18T10:03:53.815Z,98824.63
2018-05-18T10:06:21.951Z,98829.04
2018-05-18T10:08:50.074Z,98817.55
2018-05-18T10:11:18.218Z,98824.94
2018-05-18T10:13:46.424Z,98817.34
2018-05-18T10:16:14.567Z,98816.78
2018-05-18T10:18:42.748Z,98820.52
2018-05-18T10:21:10.841Z,98822.27
2018-05-18T10:23:38.976Z,98819.08
2018-05-18T10:26:07.168Z,98811.78
2018-05-18T10:28:35.336Z,98819.23
2018-05-18T10:31:03.436Z,98822.52
2018-05-18T10:33:31.582Z,98821.77
2018-05-18T10:35:59.729Z,98824.80
2018-05-18T10:38:27.894Z,98824.22
2018-05-18T10:40:56.021Z,98830.86
2018-05-18T10:43:24.163Z,98825.61
2018-05-18T10:45:52.317Z,98823.31
2018-05-18T10:48:20.563Z,98818.13
2018-05-18T10:50:48.706Z,98828.72
2018-05-18T10:53:16.844Z,98815.95
2018-05-18T10:55:44.972Z,98819.05
2018-05-18T10:58:13.125Z,98815.23
2018-05-18T11:00:41.309Z,98813.08
2018-05-18T11:03:10.237Z,98804.27
2018-05-18T11:05:38.362Z,98790.92
2018-05-18T11:08:06.525Z,98797.86
2018-05-18T11:10:34.658Z,98802.36
2018-05-18T11:13:02.807Z,98793.73
2018-05-18T11:15:30.952Z,98794.99
2018-05-18T11:17:59.104Z,98784.15
2018-05-18T11:20:27.235Z,98779.25
2018-05-18T11:22:55.405Z,98771.66
2018-05-18T11:25:23.531Z,98777.89
2018-05-18T11:27:51.673Z,98770.29
2018-05-18T11:30:19.966Z,98775.34
2018-05-18T11:32:47.954Z,98773.26
2018-05-18T11:35:16.094Z,98768.27
2018-05-18T11:37:44.247Z,98773.73
2018-05-18T11:40:12.411Z,98764.80
2018-05-18T11:42:40.693Z,98767.24
2018-05-18T11:45:08.834Z,98763.14
2018-05-18T11:47:36.972Z,98757.03
2018-05-18T11:50:05.099Z,98748.75
2018-05-18T11:52:33.251Z,98746.68
2018-05-18T11:55:01.400Z,98749.53
2018-05-18T11:57:29.562Z,98741.92
2018-05-18T11:59:58.455Z,98743.82
2018-05-18T12:02:26.630Z,98739.72
2018-05-18T12:04:54.724Z,98730.90
2018-05-18T12:07:22.867Z,98725.20
2018-05-18T12:09:51.003Z,98732.32
2018-05-18T12:12:19.142Z,98726.72
2018-05-18T12:14:47.310Z,98722.63
2018-05-18T12:17:15.446Z,98721.98
2018-05-18T12:19:43.578Z,98715.69
2018-05-18T12:22:11.731Z,98721.18
2018-05-18T12:24:39.865Z,98727.48
2018-05-18T12:27:08.008Z,98710.94
2018-05-18T12:29:36.144Z,98711.41
2018-05-18T12:32:04.296Z,98701.86
2018-05-18T12:34:32.437Z,98703.02
2018-05-18T12:37:00.646Z,98703.02
2018-05-18T12:39:28.769Z,98694.87
2018-05-18T12:41:56.898Z,98694.80
2018-05-18T12:44:25.035Z,98692.08
2018-05-18T12:46:53.180Z,98695.30
2018-05-18T12:49:21.327Z,98691.93
2018-05-18T12:51:49.450Z,98697.30
2018-05-18T12:54:17.576Z,98695.00
2018-05-18T12:56:45.724Z,98696.57
2018-05-18T12:59:13.868Z,98694.01
2018-05-18T13:01:42.003Z,98700.00
2018-05-18T13:04:10.131Z,98694.65
2018-05-18T13:06:38.270Z,98695.25
2018-05-18T13:09:06.459Z,98697.81
2018-05-18T13:11:34.587Z,98698.16
2018-05-18T13:14:02.730Z,98686.15
2018-05-18T13:16:30.876Z,98683.09
2018-05-18T13:18:59.019Z,98682.20
2018-05-18T13:21:27.148Z,98682.27
2018-05-18T13:23:55.292Z,98676.31
2018-05-18T13:26:23.422Z,98674.75
2018-05-18T13:28:51.565Z,98670.93
2018-05-18T13:31:19.705Z,98673.69
2018-05-18T13:33:47.859Z,98671.88
2018-05-18T13:36:16.010Z,98675.69
2018-05-18T13:38:44.255Z,98665.91
2018-05-18T13:41:12.322Z,98660.27
2018-05-18T13:43:40.446Z,98655.99
2018-05-18T13:46:08.594Z,98651.33
2018-05-18T13:48:36.743Z,98640.36
2018-05-18T13:51:04.905Z,98647.08
2018-05-18T13:53:33.042Z,98642.98
2018-05-18T13:56:01.181Z,98646.61
2018-05-18T13:58:29.319Z,98644.56
2018-05-18T14:00:57.445Z,98653.45
2018-05-18T14:03:25.722Z,98645.23
2018-05-18T14:05:53.888Z,98655.39
2018-05-18T14:08:22.013Z,98645.34
2018-05-18T14:10:50.164Z,98641.09
2018-05-18T14:13:18.309Z,98631.59
2018-05-18T14:15:46.447Z,98652.80
2018-05-18T14:18:14.592Z,98640.78
2018-05-18T14:20:42.867Z,98641.18
2018-05-18T14:23:11.006Z,98637.39
2018-05-18T14:25:42.508Z,98633.84
2018-05-18T14:28:11.203Z,98625.74
2018-05-18T14:30:39.342Z,98617.05
2018-05-18T14:33:07.871Z,98618.77
2018-05-18T14:35:36.017Z,98612.70
2018-05-18T14:38:04.283Z,98613.23
2018-05-18T14:40:32.331Z,98608.16
2018-05-18T14:43:00.495Z,98615.83
2018-05-18T14:45:29.017Z,98612.12
2018-05-18T14:47:58.033Z,98614.17
2018-05-18T14:50:26.170Z,98615.69
2018-05-18T14:52:54.355Z,98620.44
2018-05-18T14:55:22.509Z,98612.13
2018-05-18T14:57:50.640Z,98614.22
2018-05-18T15:00:18.788Z,98612.86
2018-05-18T15:02:47.628Z,98618.92
2018-05-18T15:05:15.800Z,98617.30
2018-05-18T15:07:43.956Z,98614.59
2018-05-18T15:10:12.095Z,98614.11
2018-05-18T15:12:40.227Z,98615.26
2018-05-18T15:15:08.373Z,98616.02
2018-05-18T15:17:36.503Z,98608.80
2018-05-18T15:20:04.633Z,98611.23
2018-05-18T15:22:32.768Z,98619.39
2018-05-18T15:25:00.893Z,98627.19
2018-05-18T15:27:29.050Z,98626.09
2018-05-18T15:29:57.235Z,98627.61
2018-05-18T15:32:26.428Z,98628.59
2018-05-18T15:34:54.553Z,98629.11
2018-05-18T15:37:22.773Z,98626.02
2018-05-18T15:39:50.827Z,98622.27
2018-05-18T15:42:18.946Z,98634.03
2018-05-18T15:44:47.073Z,98627.34
2018-05-18T15:47:15.192Z,98626.61
2018-05-18T15:49:43.329Z,98624.56
2018-05-18T15:52:11.476Z,98620.84
2018-05-18T15:54:39.593Z,98623.00
2018-05-18T15:57:07.735Z,98619.72
2018-05-18T15:59:35.849Z,98613.42
2018-05-18T16:02:03.975Z,98617.44
2018-05-18T16:04:32.103Z,98621.42
2018-05-18T16:07:02.310Z,98627.47
2018-05-18T16:09:30.430Z,98621.95
2018-05-18T16:11:58.555Z,98625.62
2018-05-18T16:14:26.686Z,98624.13
2018-05-18T16:16:54.819Z,98621.08
2018-05-18T16:19:23.016Z,98610.70
2018-05-18T16:21:51.135Z,98618.08
2018-05-18T16:24:19.363Z,98627.98
2018-05-18T16:26:47.650Z,98625.17
2018-05-18T16:29:15.770Z,98630.11
2018-05-18T16:31:43.883Z,98628.33
2018-05-18T16:34:12.077Z,98635.55
2018-05-18T16:36:40.158Z,98636.95
2018-05-18T16:39:08.297Z,98640.12
2018-05-18T16:41:36.436Z,98642.58
2018-05-18T16:44:04.621Z,98640.45
2018-05-18T16:46:32.742Z,98634.48
2018-05-18T16:49:00.934Z,98637.38
2018-05-18T16:51:29.074Z,98625.84
2018-05-18T16:53:57.208Z,98623.60
2018-05-18T16:56:25.357Z,98623.34
2018-05-18T16:58:53.485Z,98622.14
2018-05-18T17:01:21.615Z,98624.37
2018-05-18T17:03:49.783Z,98627.38
2018-05-18T17:06:17.911Z,98623.53
2018-05-18T17:08:46.043Z,98617.48
2018-05-18T17:11:14.162Z,98616.75
2018-05-18T17:13:42.286Z,98616.38
2018-05-18T17:16:10.412Z,98620.03
2018-05-18T17:18:38.531Z,98631.33
2018-05-18T17:21:06.758Z,98629.63
2018-05-18T17:23:34.869Z,98634.33
2018-05-18T17:26:02.999Z,98636.78
2018-05-18T17:28:31.137Z,98639.69
2018-05-18T17:30:59.265Z,98637.48
2018-05-18T17:33:27.415Z,98639.68
2018-05-18T17:35:58.638Z,98647.14
2018-05-18T17:38:27.008Z,98654.60
2018-05-18T17:40:55.120Z,98660.55
2018-05-18T17:43:23.261Z,98656.59
2018-05-18T17:45:51.401Z,98652.02
2018-05-18T17:48:19.536Z,98658.63
2018-05-18T17:50:47.663Z,98661.42
2018-05-18T17:53:15.827Z,98667.05
2018-05-18T17:55:43.975Z,98666.54
2018-05-18T17:58:12.091Z,98659.53
2018-05-18T18:00:40.222Z,98656.84
2018-05-18T18:03:08.378Z,98664.09
2018-05-18T18:05:36.519Z,98667.09
2018-05-18T18:08:04.655Z,98677.47
2018-05-18T18:10:32.803Z,98686.17
2018-05-18T18:13:00.927Z,98692.70
2018-05-18T18:15:34.847Z,98704.23
2018-05-18T18:18:05.057Z,98713.51
2018-05-18T18:20:34.273Z,98730.70
2018-05-18T18:23:02.581Z,98744.17
2018-05-18T18:25:30.714Z,98757.45
2018-05-18T18:27:58.850Z,98761.77
2018-05-18T18:30:26.982Z,98763.80
2018-05-18T18:32:55.145Z,98763.30
2018-05-18T18:35:39.529Z,98762.59
2018-05-18T18:38:10.044Z,98774.41
2018-05-18T18:40:38.394Z,98770.22
2018-05-18T18:43:06.618Z,98768.43
2018-05-18T18:45:34.734Z,98776.27
2018-05-18T18:48:02.862Z,98781.43
2018-05-18T18:50:30.999Z,98785.12
2018-05-18T18:55:34.434Z,98779.95
2018-05-18T18:58:02.573Z,98782.25
2018-05-18T19:00:30.691Z,98783.20
2018-05-18T19:02:58.798Z,98782.84
2018-05-18T19:05:26.927Z,98781.57
2018-05-18T19:07:55.056Z,98784.45
2018-05-18T19:10:23.178Z,98791.91
2018-05-18T19:12:51.333Z,98790.19
2018-05-18T19:15:19.486Z,98795.73
2018-05-18T19:17:47.570Z,98794.95
2018-05-18T19:20:15.697Z,98804.71
2018-05-18T19:22:43.808Z,98804.88
2018-05-18T19:25:11.987Z,98808.42
2018-05-18T19:27:40.119Z,98812.48
2018-05-18T19:30:08.236Z,98805.30
2018-05-18T19:32:36.370Z,98810.47
2018-05-18T19:35:04.857Z,98808.75
2018-05-18T19:37:32.980Z,98807.16
2018-05-18T19:40:01.105Z,98810.44
2018-05-18T19:42:29.228Z,98816.00
2018-05-18T19:44:57.363Z,98811.72
2018-05-18T19:47:25.491Z,98818.23
2018-05-18T19:49:53.663Z,98823.42
2018-05-18T19:52:21.772Z,98831.81
2018-05-18T19:54:49.899Z,98830.77
2018-05-18T19:57:18.050Z,98841.97
2018-05-18T19:59:46.187Z,98852.55
2018-05-18T20:02:14.308Z,98856.50
2018-05-18T20:04:42.455Z,98866.27
2018-05-18T20:07:10.599Z,98881.79
2018-05-18T20:09:38.727Z,98875.41
2018-05-18T20:12:06.875Z,98875.48
2018-05-18T20:14:35.008Z,98877.39
2018-05-18T20:17:03.164Z,98870.23
2018-05-18T20:19:31.298Z,98860.45
2018-05-18T20:21:59.430Z,98850.02
2018-05-18T20:24:27.562Z,98832.48
2018-05-18T20:26:55.682Z,98826.24
2018-05-18T20:29:23.806Z,98824.05
2018-05-18T20:31:52.087Z,98818.32
2018-05-18T20:34:20.239Z,98814.16
2018-05-18T20:36:48.382Z,98805.42
2018-05-18T20:39:16.495Z,98807.36
2018-05-18T20:41:44.627Z,98807.55
2018-05-18T20:44:12.756Z,98804.32
2018-05-18T20:46:41.936Z,98802.03
2018-05-18T20:49:10.399Z,98805.02
2018-05-18T20:51:38.517Z,98804.34
2018-05-18T20:54:06.677Z,98808.67
2018-05-18T20:56:34.859Z,98811.77
2018-05-18T20:59:02.968Z,98804.91
2018-05-18T21:01:31.091Z,98809.80
2018-05-18T21:03:59.235Z,98809.53
2018-05-18T21:06:27.362Z,98806.59
2018-05-18T21:08:55.510Z,98814.39
2018-05-18T21:11:23.639Z,98831.20
2018-05-18T21:13:51.782Z,98831.21
2018-05-18T21:16:19.970Z,98824.88
2018-05-18T21:18:48.106Z,98830.13
2018-05-18T21:21:16.234Z,98825.80
2018-05-18T21:23:44.369Z,98836.21
2018-05-18T21:26:12.516Z,98833.12
2018-05-18T21:28:40.650Z,98837.19
2018-05-18T21:31:08.791Z,98833.70
2018-05-18T21:33:36.931Z,98835.09
2018-05-18T21:36:05.058Z,98840.98
2018-05-18T21:38:33.201Z,98838.69
2018-05-18T21:41:01.343Z,98837.48
2018-05-18T21:43:29.490Z,98831.98
2018-05-18T21:45:57.639Z,98834.96
2018-05-18T21:48:25.793Z,98828.11
2018-05-18T21:50:53.954Z,98826.24
2018-05-18T21:53:22.084Z,98830.53
2018-05-18T21:55:50.246Z,98833.92
2018-05-18T21:58:18.405Z,98826.67
2018-05-18T22:00:46.540Z,98823.71
2018-05-18T22:03:14.679Z,98820.61
2018-05-18T22:05:42.797Z,98808.64
2018-05-18T22:08:10.924Z,98814.71
2018-05-18T22:10:39.078Z,98812.44
2018-05-18T22:13:07.242Z,98816.33
2018-05-18T22:15:35.374Z,98815.69
2018-05-18T22:18:03.502Z,98815.94
2018-05-18T22:20:31.985Z,98823.07
2018-05-18T22:23:01.231Z,98818.38
2018-05-18T22:25:29.845Z,98824.42
2018-05-18T22:27:57.989Z,98824.97
2018-05-18T22:30:26.120Z,98827.78
2018-05-18T22:32:54.250Z,98821.22
2018-05-18T22:35:22.640Z,98821.22
2018-05-18T22:37:50.778Z,98825.50
2018-05-18T22:40:18.914Z,98819.18
2018-05-18T22:42:47.051Z,98823.75
2018-05-18T22:45:15.249Z,98821.06
2018-05-18T22:47:43.899Z,98824.31
2018-05-18T22:50:12.040Z,98825.09
2018-05-18T22:52:40.154Z,98813.55
2018-05-18T22:55:08.304Z,98822.28
2018-05-18T22:57:36.422Z,98820.00
2018-05-18T23:00:04.555Z,98818.55
2018-05-18T23:02:32.683Z,98813.85
2018-05-18T23:05:00.811Z,98818.03
2018-05-18T23:07:28.943Z,98818.58
2018-05-18T23:09:57.262Z,98811.60
2018-05-18T23:12:25.380Z,98817.94
2018-05-18T23:14:55.361Z,98821.41
2018-05-18T23:17:23.520Z,98825.19
2018-05-18T23:19:51.650Z,98814.56
2018-05-18T23:22:19.773Z,98817.67
2018-05-18T23:24:47.927Z,98814.44
2018-05-18T23:27:16.055Z,98811.77
2018-05-18T23:29:44.187Z,98814.32
2018-05-18T23:32:12.321Z,98813.91
2018-05-18T23:34:40.452Z,98811.35
2018-05-18T23:37:08.588Z,98816.20
2018-05-18T23:39:36.722Z,98816.09
2018-05-18T23:42:04.852Z,98817.45
2018-05-18T23:44:33.035Z,98813.02
2018-05-18T23:47:01.123Z,98809.40
2018-05-18T23:49:29.257Z,98808.18
2018-05-18T23:51:57.409Z,98813.56
2018-05-18T23:54:25.547Z,98822.19
2018-05-18T23:56:53.666Z,98821.50
2018-05-18T23:59:21.790Z,98824.21
